sensor_id;sensor_type;location;lat;lon;timestamp;temperature;humidity
15705;DHT22;7952;48.396;12.806;2023-08-06T00:10:15;18.70;61.00
15705;DHT22;7952;48.396;12.806;2023-08-06T00:13:10;18.70;61.10
15705;DHT22;7952;48.396;12.806;2023-08-06T00:58:03;18.60;61.30
15705;DHT22;7952;48.396;12.806;2023-08-06T01:00:50;18.50;61.30
15705;DHT22;7952;48.396;12.806;2023-08-06T01:03:53;18.50;61.20
15705;DHT22;7952;48.396;12.806;2023-08-06T01:16:35;18.50;61.30
15705;DHT22;7952;48.396;12.806;2023-08-06T01:19:02;18.40;61.20
15705;DHT22;7952;48.396;12.806;2023-08-06T01:21:31;18.40;61.20
15705;DHT22;7952;48.396;12.806;2023-08-06T01:24:18;18.40;61.30
15705;DHT22;7952;48.396;12.806;2023-08-06T01:27:21;18.40;61.30
15705;DHT22;7952;48.396;12.806;2023-08-06T01:33:14;18.40;61.40
15705;DHT22;7952;48.396;12.806;2023-08-06T01:39:00;18.40;61.40
15705;DHT22;7952;48.396;12.806;2023-08-06T01:42:04;18.40;61.40
15705;DHT22;7952;48.396;12.806;2023-08-06T01:48:07;18.30;61.30
15705;DHT22;7952;48.396;12.806;2023-08-06T01:50:42;18.30;61.40
15705;DHT22;7952;48.396;12.806;2023-08-06T01:53:38;18.30;61.40
15705;DHT22;7952;48.396;12.806;2023-08-06T02:03:01;18.30;61.50
15705;DHT22;7952;48.396;12.806;2023-08-06T02:05:59;18.20;61.40
15705;DHT22;7952;48.396;12.806;2023-08-06T02:08:28;18.20;61.40
15705;DHT22;7952;48.396;12.806;2023-08-06T02:10:56;18.20;61.50
15705;DHT22;7952;48.396;12.806;2023-08-06T02:13:53;18.20;61.50
15705;DHT22;7952;48.396;12.806;2023-08-06T02:26:53;18.20;61.50
15705;DHT22;7952;48.396;12.806;2023-08-06T02:29:21;18.20;61.60
15705;DHT22;7952;48.396;12.806;2023-08-06T02:35:15;18.20;61.60
15705;DHT22;7952;48.396;12.806;2023-08-06T03:16:19;17.90;61.60
15705;DHT22;7952;48.396;12.806;2023-08-06T04:06:10;17.50;61.90
15705;DHT22;7952;48.396;12.806;2023-08-06T04:12:16;17.50;61.90
15705;DHT22;7952;48.396;12.806;2023-08-06T04:15:12;17.50;61.90
15705;DHT22;7952;48.396;12.806;2023-08-06T04:18:25;17.50;61.80
15705;DHT22;7952;48.396;12.806;2023-08-06T04:36:04;17.50;61.80
15705;DHT22;7952;48.396;12.806;2023-08-06T04:52:38;17.60;61.80
15705;DHT22;7952;48.396;12.806;2023-08-06T04:59:44;17.60;61.80
15705;DHT22;7952;48.396;12.806;2023-08-06T05:09:14;17.70;61.80
15705;DHT22;7952;48.396;12.806;2023-08-06T05:15:25;17.70;61.80
15705;DHT22;7952;48.396;12.806;2023-08-06T05:18:57;17.70;61.70
15705;DHT22;7952;48.396;12.806;2023-08-06T05:22:20;17.80;61.70
15705;DHT22;7952;48.396;12.806;2023-08-06T05:25:16;17.80;61.70
15705;DHT22;7952;48.396;12.806;2023-08-06T05:41:49;18.00;61.80
15705;DHT22;7952;48.396;12.806;2023-08-06T05:51:39;18.10;61.70
15705;DHT22;7952;48.396;12.806;2023-08-06T05:58:19;18.30;61.80
15705;DHT22;7952;48.396;12.806;2023-08-06T06:01:22;18.30;61.60
15705;DHT22;7952;48.396;12.806;2023-08-06T06:11:07;18.50;61.60
15705;DHT22;7952;48.396;12.806;2023-08-06T06:20:51;18.60;61.60
15705;DHT22;7952;48.396;12.806;2023-08-06T06:40:55;19.10;61.70
15705;DHT22;7952;48.396;12.806;2023-08-06T06:43:44;19.20;61.70
15705;DHT22;7952;48.396;12.806;2023-08-06T06:56:48;19.70;61.80
15705;DHT22;7952;48.396;12.806;2023-08-06T06:59:38;19.80;61.60
15705;DHT22;7952;48.396;12.806;2023-08-06T07:09:26;19.90;61.20
15705;DHT22;7952;48.396;12.806;2023-08-06T07:13:17;19.90;61.30
15705;DHT22;7952;48.396;12.806;2023-08-06T07:23:18;20.00;61.50
15705;DHT22;7952;48.396;12.806;2023-08-06T07:40:14;20.50;61.50
15705;DHT22;7952;48.396;12.806;2023-08-06T07:54:20;21.30;61.30
15705;DHT22;7952;48.396;12.806;2023-08-06T08:00:08;21.90;61.00
15705;DHT22;7952;48.396;12.806;2023-08-06T08:03:43;22.10;60.60
15705;DHT22;7952;48.396;12.806;2023-08-06T08:06:52;22.20;60.40
15705;DHT22;7952;48.396;12.806;2023-08-06T08:09:31;22.30;60.30
15705;DHT22;7952;48.396;12.806;2023-08-06T08:11:57;22.40;60.30
15705;DHT22;7952;48.396;12.806;2023-08-06T08:14:24;22.40;60.20
15705;DHT22;7952;48.396;12.806;2023-08-06T08:16:50;22.40;60.10
15705;DHT22;7952;48.396;12.806;2023-08-06T08:19:19;22.40;60.10
15705;DHT22;7952;48.396;12.806;2023-08-06T08:21:45;22.40;60.10
15705;DHT22;7952;48.396;12.806;2023-08-06T08:24:17;22.40;60.10
15705;DHT22;7952;48.396;12.806;2023-08-06T08:26:45;22.40;60.10
15705;DHT22;7952;48.396;12.806;2023-08-06T08:29:20;22.50;60.20
15705;DHT22;7952;48.396;12.806;2023-08-06T08:31:52;22.50;60.00
15705;DHT22;7952;48.396;12.806;2023-08-06T08:34:24;22.50;60.00
15705;DHT22;7952;48.396;12.806;2023-08-06T08:40:58;22.60;59.90
15705;DHT22;7952;48.396;12.806;2023-08-06T08:46:54;22.70;59.80
15705;DHT22;7952;48.396;12.806;2023-08-06T08:56:08;23.00;59.80
15705;DHT22;7952;48.396;12.806;2023-08-06T08:58:44;23.10;59.60
15705;DHT22;7952;48.396;12.806;2023-08-06T09:01:27;23.20;59.50
15705;DHT22;7952;48.396;12.806;2023-08-06T09:04:31;23.20;59.40
15705;DHT22;7952;48.396;12.806;2023-08-06T09:07:02;23.30;59.40
15705;DHT22;7952;48.396;12.806;2023-08-06T09:09:34;23.40;59.30
15705;DHT22;7952;48.396;12.806;2023-08-06T09:12:35;23.40;59.20
15705;DHT22;7952;48.396;12.806;2023-08-06T09:15:01;23.40;59.10
15705;DHT22;7952;48.396;12.806;2023-08-06T09:17:42;23.50;59.10
15705;DHT22;7952;48.396;12.806;2023-08-06T09:20:56;23.50;59.00
15705;DHT22;7952;48.396;12.806;2023-08-06T09:26:36;23.60;59.10
15705;DHT22;7952;48.396;12.806;2023-08-06T09:29:09;23.60;58.80
15705;DHT22;7952;48.396;12.806;2023-08-06T09:35:40;23.60;58.60
15705;DHT22;7952;48.396;12.806;2023-08-06T09:38:22;23.60;58.60
15705;DHT22;7952;48.396;12.806;2023-08-06T09:41:04;23.60;58.60
15705;DHT22;7952;48.396;12.806;2023-08-06T09:43:30;23.60;58.80
15705;DHT22;7952;48.396;12.806;2023-08-06T09:45:56;23.70;58.80
15705;DHT22;7952;48.396;12.806;2023-08-06T09:48:27;23.80;58.80
15705;DHT22;7952;48.396;12.806;2023-08-06T09:50:53;23.80;58.60
15705;DHT22;7952;48.396;12.806;2023-08-06T09:53:25;23.90;58.30
15705;DHT22;7952;48.396;12.806;2023-08-06T09:55:51;23.80;58.20
15705;DHT22;7952;48.396;12.806;2023-08-06T09:58:23;23.80;58.30
15705;DHT22;7952;48.396;12.806;2023-08-06T10:01:14;23.70;58.00
15705;DHT22;7952;48.396;12.806;2023-08-06T10:03:41;23.50;57.80
15705;DHT22;7952;48.396;12.806;2023-08-06T10:06:11;23.30;57.80
15705;DHT22;7952;48.396;12.806;2023-08-06T10:08:40;23.20;57.70
15705;DHT22;7952;48.396;12.806;2023-08-06T10:11:40;23.10;57.90
15705;DHT22;7952;48.396;12.806;2023-08-06T10:14:46;23.00;58.00
15705;DHT22;7952;48.396;12.806;2023-08-06T10:18:02;23.00;58.30
15705;DHT22;7952;48.396;12.806;2023-08-06T10:21:02;23.20;58.40
15705;DHT22;7952;48.396;12.806;2023-08-06T10:44:12;23.50;57.50
15705;DHT22;7952;48.396;12.806;2023-08-06T10:50:28;23.60;57.20
15705;DHT22;7952;48.396;12.806;2023-08-06T10:53:15;23.60;57.00
15705;DHT22;7952;48.396;12.806;2023-08-06T10:56:16;23.60;57.50
15705;DHT22;7952;48.396;12.806;2023-08-06T10:58:55;23.60;56.70
15705;DHT22;7952;48.396;12.806;2023-08-06T11:01:37;23.70;56.60
15705;DHT22;7952;48.396;12.806;2023-08-06T11:04:05;23.60;56.50
15705;DHT22;7952;48.396;12.806;2023-08-06T11:06:31;23.50;56.40
15705;DHT22;7952;48.396;12.806;2023-08-06T11:09:04;23.50;56.30
15705;DHT22;7952;48.396;12.806;2023-08-06T11:11:33;23.30;56.20
15705;DHT22;7952;48.396;12.806;2023-08-06T11:14:06;23.10;56.40
15705;DHT22;7952;48.396;12.806;2023-08-06T11:20:31;22.70;56.30
15705;DHT22;7952;48.396;12.806;2023-08-06T11:23:44;22.30;56.20
15705;DHT22;7952;48.396;12.806;2023-08-06T11:26:46;22.00;56.30
15705;DHT22;7952;48.396;12.806;2023-08-06T11:32:20;21.60;56.70
15705;DHT22;7952;48.396;12.806;2023-08-06T11:35:12;21.50;57.00
15705;DHT22;7952;48.396;12.806;2023-08-06T11:37:45;21.40;56.80
15705;DHT22;7952;48.396;12.806;2023-08-06T11:40:12;21.30;57.20
15705;DHT22;7952;48.396;12.806;2023-08-06T11:46:09;21.20;57.30
15705;DHT22;7952;48.396;12.806;2023-08-06T11:48:55;21.20;57.40
15705;DHT22;7952;48.396;12.806;2023-08-06T11:51:33;21.20;57.50
15705;DHT22;7952;48.396;12.806;2023-08-06T11:54:03;21.30;57.70
15705;DHT22;7952;48.396;12.806;2023-08-06T11:56:42;21.50;57.90
15705;DHT22;7952;48.396;12.806;2023-08-06T11:59:28;21.60;57.70
15705;DHT22;7952;48.396;12.806;2023-08-06T12:02:22;21.80;57.60
15705;DHT22;7952;48.396;12.806;2023-08-06T12:14:47;22.00;56.70
15705;DHT22;7952;48.396;12.806;2023-08-06T12:17:13;21.90;56.70
15705;DHT22;7952;48.396;12.806;2023-08-06T12:19:45;21.80;56.80
15705;DHT22;7952;48.396;12.806;2023-08-06T12:22:17;21.70;56.90
15705;DHT22;7952;48.396;12.806;2023-08-06T12:24:47;21.60;57.10
15705;DHT22;7952;48.396;12.806;2023-08-06T12:27:39;21.60;57.90
15705;DHT22;7952;48.396;12.806;2023-08-06T12:30:27;21.60;57.40
15705;DHT22;7952;48.396;12.806;2023-08-06T12:32:59;21.60;57.40
15705;DHT22;7952;48.396;12.806;2023-08-06T12:36:04;21.70;57.60
15705;DHT22;7952;48.396;12.806;2023-08-06T12:38:53;21.80;57.60
15705;DHT22;7952;48.396;12.806;2023-08-06T12:42:09;21.90;57.50
15705;DHT22;7952;48.396;12.806;2023-08-06T12:45:26;21.90;57.10
15705;DHT22;7952;48.396;12.806;2023-08-06T12:47:55;21.90;56.90
15705;DHT22;7952;48.396;12.806;2023-08-06T12:50:41;21.80;56.90
15705;DHT22;7952;48.396;12.806;2023-08-06T12:53:32;21.70;57.00
15705;DHT22;7952;48.396;12.806;2023-08-06T12:56:08;21.70;57.00
15705;DHT22;7952;48.396;12.806;2023-08-06T13:05:41;21.60;56.70
15705;DHT22;7952;48.396;12.806;2023-08-06T13:11:27;21.40;56.90
15705;DHT22;7952;48.396;12.806;2023-08-06T13:25:27;21.80;57.20
15705;DHT22;7952;48.396;12.806;2023-08-06T13:29:09;21.90;57.00
15705;DHT22;7952;48.396;12.806;2023-08-06T13:32:48;22.00;56.80
15705;DHT22;7952;48.396;12.806;2023-08-06T13:38:27;22.00;56.60
15705;DHT22;7952;48.396;12.806;2023-08-06T13:41:37;22.00;56.50
15705;DHT22;7952;48.396;12.806;2023-08-06T13:44:23;22.10;56.50
15705;DHT22;7952;48.396;12.806;2023-08-06T13:47:26;22.10;56.40
15705;DHT22;7952;48.396;12.806;2023-08-06T13:56:54;22.10;56.20
15705;DHT22;7952;48.396;12.806;2023-08-06T13:59:43;22.00;56.00
15705;DHT22;7952;48.396;12.806;2023-08-06T14:02:31;21.90;55.80
15705;DHT22;7952;48.396;12.806;2023-08-06T14:05:16;21.80;55.90
15705;DHT22;7952;48.396;12.806;2023-08-06T14:14:00;21.50;56.00
15705;DHT22;7952;48.396;12.806;2023-08-06T14:20:48;21.40;56.00
15705;DHT22;7952;48.396;12.806;2023-08-06T14:23:40;21.40;56.00
15705;DHT22;7952;48.396;12.806;2023-08-06T14:34:43;21.50;56.00
15705;DHT22;7952;48.396;12.806;2023-08-06T14:37:44;21.50;56.00
15705;DHT22;7952;48.396;12.806;2023-08-06T15:03:22;21.00;55.90
15705;DHT22;7952;48.396;12.806;2023-08-06T15:10:19;21.10;55.90
15705;DHT22;7952;48.396;12.806;2023-08-06T15:23:25;21.00;55.50
15705;DHT22;7952;48.396;12.806;2023-08-06T15:36:38;20.50;55.80
15705;DHT22;7952;48.396;12.806;2023-08-06T15:51:13;20.40;56.10
15705;DHT22;7952;48.396;12.806;2023-08-06T15:58:01;20.30;56.00
15705;DHT22;7952;48.396;12.806;2023-08-06T16:01:30;20.10;55.80
15705;DHT22;7952;48.396;12.806;2023-08-06T16:04:41;20.00;55.90
15705;DHT22;7952;48.396;12.806;2023-08-06T16:07:33;19.80;55.90
15705;DHT22;7952;48.396;12.806;2023-08-06T16:41:43;18.50;56.90
15705;DHT22;7952;48.396;12.806;2023-08-06T17:59:47;17.30;58.00
15705;DHT22;7952;48.396;12.806;2023-08-06T18:09:01;17.20;58.00
15705;DHT22;7952;48.396;12.806;2023-08-06T18:11:27;17.20;58.10
15705;DHT22;7952;48.396;12.806;2023-08-06T18:13:53;17.20;58.20
15705;DHT22;7952;48.396;12.806;2023-08-06T18:16:19;17.10;58.10
15705;DHT22;7952;48.396;12.806;2023-08-06T18:18:44;17.10;58.20
15705;DHT22;7952;48.396;12.806;2023-08-06T18:21:10;17.10;58.30
15705;DHT22;7952;48.396;12.806;2023-08-06T18:23:36;17.00;58.20
15705;DHT22;7952;48.396;12.806;2023-08-06T18:26:03;17.00;58.20
15705;DHT22;7952;48.396;12.806;2023-08-06T18:28:29;17.00;58.30
15705;DHT22;7952;48.396;12.806;2023-08-06T18:30:55;17.00;58.40
15705;DHT22;7952;48.396;12.806;2023-08-06T18:33:21;16.90;58.30
15705;DHT22;7952;48.396;12.806;2023-08-06T18:35:47;16.90;58.40
15705;DHT22;7952;48.396;12.806;2023-08-06T18:38:12;16.90;58.40
15705;DHT22;7952;48.396;12.806;2023-08-06T18:40:38;16.90;58.50
15705;DHT22;7952;48.396;12.806;2023-08-06T18:43:03;16.80;58.40
15705;DHT22;7952;48.396;12.806;2023-08-06T18:45:29;16.90;58.50
15705;DHT22;7952;48.396;12.806;2023-08-06T18:47:59;16.90;58.60
15705;DHT22;7952;48.396;12.806;2023-08-06T18:50:24;16.80;58.50
15705;DHT22;7952;48.396;12.806;2023-08-06T18:52:50;16.80;58.60
15705;DHT22;7952;48.396;12.806;2023-08-06T18:55:15;16.80;58.60
15705;DHT22;7952;48.396;12.806;2023-08-06T18:57:41;16.80;58.60
15705;DHT22;7952;48.396;12.806;2023-08-06T19:00:07;16.80;58.70
15705;DHT22;7952;48.396;12.806;2023-08-06T19:02:33;16.80;58.70
15705;DHT22;7952;48.396;12.806;2023-08-06T19:04:58;16.80;58.60
15705;DHT22;7952;48.396;12.806;2023-08-06T19:07:24;16.70;58.60
15705;DHT22;7952;48.396;12.806;2023-08-06T19:09:50;16.70;58.60
15705;DHT22;7952;48.396;12.806;2023-08-06T19:12:16;16.70;58.70
15705;DHT22;7952;48.396;12.806;2023-08-06T19:14:46;16.70;58.70
15705;DHT22;7952;48.396;12.806;2023-08-06T19:17:11;16.70;58.80
15705;DHT22;7952;48.396;12.806;2023-08-06T19:19:37;16.70;58.80
15705;DHT22;7952;48.396;12.806;2023-08-06T19:22:02;16.70;58.80
15705;DHT22;7952;48.396;12.806;2023-08-06T19:24:28;16.70;58.80
15705;DHT22;7952;48.396;12.806;2023-08-06T19:26:54;16.70;58.90
15705;DHT22;7952;48.396;12.806;2023-08-06T19:29:19;16.70;58.90
15705;DHT22;7952;48.396;12.806;2023-08-06T19:31:45;16.60;58.80
15705;DHT22;7952;48.396;12.806;2023-08-06T19:34:10;16.60;58.80
15705;DHT22;7952;48.396;12.806;2023-08-06T19:36:36;16.60;58.80
15705;DHT22;7952;48.396;12.806;2023-08-06T19:39:01;16.60;58.80
15705;DHT22;7952;48.396;12.806;2023-08-06T19:41:27;16.60;58.90
15705;DHT22;7952;48.396;12.806;2023-08-06T19:43:53;16.60;58.90
15705;DHT22;7952;48.396;12.806;2023-08-06T19:46:18;16.60;58.90
15705;DHT22;7952;48.396;12.806;2023-08-06T19:48:44;16.50;58.80
15705;DHT22;7952;48.396;12.806;2023-08-06T19:51:09;16.50;58.80
15705;DHT22;7952;48.396;12.806;2023-08-06T19:53:36;16.50;58.90
15705;DHT22;7952;48.396;12.806;2023-08-06T19:56:04;16.50;59.00
15705;DHT22;7952;48.396;12.806;2023-08-06T19:58:31;16.50;58.90
15705;DHT22;7952;48.396;12.806;2023-08-06T20:00:58;16.50;58.90
15705;DHT22;7952;48.396;12.806;2023-08-06T20:03:24;16.50;59.00
15705;DHT22;7952;48.396;12.806;2023-08-06T20:05:50;16.50;59.00
15705;DHT22;7952;48.396;12.806;2023-08-06T20:08:19;16.50;59.00
15705;DHT22;7952;48.396;12.806;2023-08-06T20:10:45;16.50;59.00
15705;DHT22;7952;48.396;12.806;2023-08-06T20:13:15;16.50;59.10
15705;DHT22;7952;48.396;12.806;2023-08-06T20:15:42;16.40;59.00
15705;DHT22;7952;48.396;12.806;2023-08-06T20:18:07;16.50;59.10
15705;DHT22;7952;48.396;12.806;2023-08-06T20:20:35;16.50;59.10
15705;DHT22;7952;48.396;12.806;2023-08-06T20:23:01;16.50;59.10
15705;DHT22;7952;48.396;12.806;2023-08-06T20:25:27;16.50;59.10
15705;DHT22;7952;48.396;12.806;2023-08-06T20:27:52;16.50;59.20
15705;DHT22;7952;48.396;12.806;2023-08-06T20:30:18;16.50;59.20
15705;DHT22;7952;48.396;12.806;2023-08-06T20:32:43;16.50;59.20
15705;DHT22;7952;48.396;12.806;2023-08-06T20:35:09;16.50;59.20
15705;DHT22;7952;48.396;12.806;2023-08-06T20:37:35;16.40;59.10
15705;DHT22;7952;48.396;12.806;2023-08-06T20:40:02;16.40;59.10
15705;DHT22;7952;48.396;12.806;2023-08-06T20:42:28;16.40;59.10
15705;DHT22;7952;48.396;12.806;2023-08-06T20:44:53;16.40;59.10
15705;DHT22;7952;48.396;12.806;2023-08-06T20:47:19;16.40;59.20
15705;DHT22;7952;48.396;12.806;2023-08-06T20:49:45;16.40;59.20
15705;DHT22;7952;48.396;12.806;2023-08-06T20:52:10;16.40;59.20
15705;DHT22;7952;48.396;12.806;2023-08-06T20:54:36;16.40;59.20
15705;DHT22;7952;48.396;12.806;2023-08-06T20:57:02;16.40;59.20
15705;DHT22;7952;48.396;12.806;2023-08-06T20:59:28;16.40;59.20
15705;DHT22;7952;48.396;12.806;2023-08-06T21:01:54;16.40;59.20
15705;DHT22;7952;48.396;12.806;2023-08-06T21:04:21;16.50;59.30
15705;DHT22;7952;48.396;12.806;2023-08-06T21:06:46;16.40;59.20
15705;DHT22;7952;48.396;12.806;2023-08-06T21:09:12;16.40;59.20
15705;DHT22;7952;48.396;12.806;2023-08-06T21:11:37;16.40;59.20
15705;DHT22;7952;48.396;12.806;2023-08-06T21:14:03;16.40;59.20
15705;DHT22;7952;48.396;12.806;2023-08-06T21:16:28;16.40;59.20
15705;DHT22;7952;48.396;12.806;2023-08-06T21:18:54;16.40;59.20
15705;DHT22;7952;48.396;12.806;2023-08-06T21:21:19;16.40;59.20
15705;DHT22;7952;48.396;12.806;2023-08-06T21:23:45;16.50;59.30
15705;DHT22;7952;48.396;12.806;2023-08-06T21:26:10;16.40;59.20
15705;DHT22;7952;48.396;12.806;2023-08-06T21:28:37;16.40;59.20
15705;DHT22;7952;48.396;12.806;2023-08-06T21:31:08;16.40;59.20
15705;DHT22;7952;48.396;12.806;2023-08-06T21:33:35;16.50;59.30
15705;DHT22;7952;48.396;12.806;2023-08-06T21:36:02;16.40;59.20
15705;DHT22;7952;48.396;12.806;2023-08-06T21:38:33;16.40;59.20
15705;DHT22;7952;48.396;12.806;2023-08-06T21:41:06;16.40;59.20
15705;DHT22;7952;48.396;12.806;2023-08-06T21:43:33;16.40;59.20
15705;DHT22;7952;48.396;12.806;2023-08-06T21:46:03;16.40;59.30
15705;DHT22;7952;48.396;12.806;2023-08-06T21:48:29;16.40;59.30
15705;DHT22;7952;48.396;12.806;2023-08-06T21:50:59;16.30;59.20
15705;DHT22;7952;48.396;12.806;2023-08-06T21:53:24;16.30;59.20
15705;DHT22;7952;48.396;12.806;2023-08-06T21:55:50;16.30;59.20
15705;DHT22;7952;48.396;12.806;2023-08-06T21:58:15;16.30;59.30
15705;DHT22;7952;48.396;12.806;2023-08-06T22:00:41;16.30;59.30
15705;DHT22;7952;48.396;12.806;2023-08-06T22:03:06;16.20;59.20
15705;DHT22;7952;48.396;12.806;2023-08-06T22:05:32;16.20;59.20
15705;DHT22;7952;48.396;12.806;2023-08-06T22:07:58;16.20;59.20
15705;DHT22;7952;48.396;12.806;2023-08-06T22:10:23;16.20;59.20
15705;DHT22;7952;48.396;12.806;2023-08-06T22:12:49;16.20;59.20
15705;DHT22;7952;48.396;12.806;2023-08-06T22:15:14;16.20;59.30
15705;DHT22;7952;48.396;12.806;2023-08-06T22:17:40;16.20;59.30
15705;DHT22;7952;48.396;12.806;2023-08-06T22:20:06;16.20;59.30
15705;DHT22;7952;48.396;12.806;2023-08-06T22:22:31;16.10;59.10
15705;DHT22;7952;48.396;12.806;2023-08-06T22:24:58;16.20;59.30
15705;DHT22;7952;48.396;12.806;2023-08-06T22:27:23;16.20;59.30
15705;DHT22;7952;48.396;12.806;2023-08-06T22:29:49;16.20;59.30
15705;DHT22;7952;48.396;12.806;2023-08-06T22:32:15;16.10;59.20
15705;DHT22;7952;48.396;12.806;2023-08-06T22:34:40;16.20;59.30
15705;DHT22;7952;48.396;12.806;2023-08-06T22:37:06;16.10;59.20
15705;DHT22;7952;48.396;12.806;2023-08-06T22:39:31;16.10;59.10
15705;DHT22;7952;48.396;12.806;2023-08-06T22:41:57;16.10;59.10
15705;DHT22;7952;48.396;12.806;2023-08-06T22:44:22;16.10;59.10
15705;DHT22;7952;48.396;12.806;2023-08-06T22:46:48;16.10;59.10
15705;DHT22;7952;48.396;12.806;2023-08-06T22:49:13;16.20;59.20
15705;DHT22;7952;48.396;12.806;2023-08-06T22:51:39;16.20;59.20
15705;DHT22;7952;48.396;12.806;2023-08-06T22:54:04;16.10;59.10
15705;DHT22;7952;48.396;12.806;2023-08-06T22:56:30;16.20;59.10
15705;DHT22;7952;48.396;12.806;2023-08-06T22:58:55;16.10;59.10
15705;DHT22;7952;48.396;12.806;2023-08-06T23:01:21;16.10;59.10
15705;DHT22;7952;48.396;12.806;2023-08-06T23:03:46;16.10;59.00
15705;DHT22;7952;48.396;12.806;2023-08-06T23:06:13;16.10;59.00
15705;DHT22;7952;48.396;12.806;2023-08-06T23:08:38;16.10;59.00
15705;DHT22;7952;48.396;12.806;2023-08-06T23:11:04;16.10;59.00
15705;DHT22;7952;48.396;12.806;2023-08-06T23:13:29;16.10;59.00
15705;DHT22;7952;48.396;12.806;2023-08-06T23:15:55;16.10;59.00
15705;DHT22;7952;48.396;12.806;2023-08-06T23:18:20;16.10;59.00
15705;DHT22;7952;48.396;12.806;2023-08-06T23:20:46;16.10;58.90
15705;DHT22;7952;48.396;12.806;2023-08-06T23:23:11;16.10;58.90
15705;DHT22;7952;48.396;12.806;2023-08-06T23:25:37;16.10;58.90
15705;DHT22;7952;48.396;12.806;2023-08-06T23:28:03;16.10;58.90
15705;DHT22;7952;48.396;12.806;2023-08-06T23:30:28;16.10;58.90
15705;DHT22;7952;48.396;12.806;2023-08-06T23:32:54;16.10;58.90
15705;DHT22;7952;48.396;12.806;2023-08-06T23:35:20;16.10;58.90
15705;DHT22;7952;48.396;12.806;2023-08-06T23:37:45;16.10;58.80
15705;DHT22;7952;48.396;12.806;2023-08-06T23:40:11;16.10;58.80
15705;DHT22;7952;48.396;12.806;2023-08-06T23:42:37;16.10;58.80
15705;DHT22;7952;48.396;12.806;2023-08-06T23:45:02;16.10;58.80
15705;DHT22;7952;48.396;12.806;2023-08-06T23:47:28;16.10;58.80
15705;DHT22;7952;48.396;12.806;2023-08-06T23:49:54;16.10;58.80
15705;DHT22;7952;48.396;12.806;2023-08-06T23:52:19;16.10;58.70
15705;DHT22;7952;48.396;12.806;2023-08-06T23:54:45;16.10;58.70
15705;DHT22;7952;48.396;12.806;2023-08-06T23:57:10;16.10;58.70
15705;DHT22;7952;48.396;12.806;2023-08-06T23:59:36;16.10;58.70
